Time;durP1;ratioP1;P1;durP2;ratioP2;P2;SDS_P1;SDS_P2;PMS_P1;PMS_P2;Temp;Humidity;BMP_temperature;BMP_pressure;BME280_temperature;BME280_humidity;BME280_pressure;Samples;Min_cycle;Max_cycle;Signal;HPM_P1;HPM_P2
2023/06/16 00:01:38;;;;;;;19.60;17.60;;;15.50;75.90;;;;;;5052340;28;20219;-89
2023/06/16 00:04:05;;;;;;;17.83;16.33;;;15.40;76.80;;;;;;5053714;28;20188;-89
2023/06/16 00:06:31;;;;;;;16.98;15.57;;;15.40;77.50;;;;;;5052342;28;20175;-89
2023/06/16 00:08:58;;;;;;;17.67;16.10;;;15.30;77.90;;;;;;5052487;28;20532;-89
2023/06/16 00:11:27;;;;;;;17.50;15.80;;;15.40;78.20;;;;;;5051963;28;20176;-89
2023/06/16 00:13:53;;;;;;;16.88;15.35;;;15.40;77.60;;;;;;5053257;28;20183;-89
2023/06/16 00:16:19;;;;;;;17.58;15.98;;;15.50;77.20;;;;;;5053068;28;20187;-89
2023/06/16 00:18:51;;;;;;;17.70;15.95;;;15.50;77.20;;;;;;5052994;28;20180;-89
2023/06/16 00:21:25;;;;;;;16.88;15.30;;;15.60;77.60;;;;;;5052116;28;20192;-89
2023/06/16 00:23:51;;;;;;;17.58;15.80;;;15.60;78.10;;;;;;5053562;28;20188;-89
2023/06/16 00:26:17;;;;;;;18.08;15.45;;;15.50;78.30;;;;;;5052330;28;20688;-89
2023/06/16 00:28:42;;;;;;;15.40;14.15;;;15.60;78.70;;;;;;5051807;28;20200;-89
2023/06/16 00:31:09;;;;;;;18.48;14.88;;;15.50;78.70;;;;;;5052327;28;20210;-89
2023/06/16 00:33:34;;;;;;;16.27;14.63;;;15.30;78.90;;;;;;5051884;28;20294;-89
2023/06/16 00:36:00;;;;;;;15.90;14.32;;;15.20;79.60;;;;;;5051924;28;20188;-89
2023/06/16 00:38:26;;;;;;;16.15;14.40;;;15.20;80.20;;;;;;5052239;28;20672;-89
2023/06/16 00:40:51;;;;;;;14.35;13.00;;;15.20;80.70;;;;;;5052205;28;20203;-89
2023/06/16 00:43:17;;;;;;;15.18;13.60;;;15.20;80.70;;;;;;5051795;28;20572;-89
2023/06/16 00:45:42;;;;;;;15.35;13.95;;;15.30;80.60;;;;;;5051832;28;20210;-89
2023/06/16 00:48:08;;;;;;;14.75;13.30;;;15.30;80.80;;;;;;5051742;28;20176;-89
2023/06/16 00:50:33;;;;;;;14.88;13.68;;;15.40;80.60;;;;;;5051829;28;20208;-89
2023/06/16 00:53:00;;;;;;;19.55;13.77;;;15.50;80.10;;;;;;5051936;28;20192;-89
2023/06/16 00:55:26;;;;;;;14.93;13.52;;;15.60;79.80;;;;;;5052911;28;20191;-90
2023/06/16 00:57:55;;;;;;;15.13;13.52;;;15.60;79.60;;;;;;5051797;28;20253;-89
2023/06/16 01:00:21;;;;;;;15.02;13.70;;;15.70;79.40;;;;;;5052870;28;20200;-89
2023/06/16 01:02:47;;;;;;;15.65;14.25;;;15.70;79.20;;;;;;5051906;28;20681;-89
2023/06/16 01:05:16;;;;;;;15.63;14.05;;;15.70;79.80;;;;;;5051826;28;20172;-89
2023/06/16 01:08:17;;;;;;;15.10;13.25;;;15.60;80.20;;;;;;5051663;28;20172;-89
2023/06/16 01:10:59;;;;;;;15.93;14.15;;;15.60;80.10;;;;;;5049331;28;20192;-89
2023/06/16 01:14:03;;;;;;;15.48;13.98;;;15.60;80.00;;;;;;5051406;28;20563;-89
2023/06/16 01:16:31;;;;;;;14.82;13.57;;;15.60;79.80;;;;;;5036289;28;20255;-89
2023/06/16 01:19:03;;;;;;;15.02;13.60;;;15.60;80.10;;;;;;5051833;28;20187;-89
2023/06/16 01:21:37;;;;;;;17.17;14.85;;;15.60;79.70;;;;;;5052260;28;20246;-89
2023/06/16 01:24:09;;;;;;;14.52;13.23;;;15.60;79.30;;;;;;5054825;28;20245;-89
2023/06/16 01:26:40;;;;;;;14.15;12.85;;;15.70;79.00;;;;;;5056656;28;20255;-89
2023/06/16 01:29:08;;;;;;;16.05;14.57;;;15.60;78.80;;;;;;5055345;28;20278;-89
2023/06/16 01:31:36;;;;;;;15.35;14.05;;;15.60;78.90;;;;;;5055987;28;20179;-89
2023/06/16 01:34:02;;;;;;;15.73;14.32;;;15.60;79.10;;;;;;5055094;28;20199;-89
2023/06/16 01:36:31;;;;;;;15.70;14.20;;;15.60;79.30;;;;;;5056371;28;20176;-89
2023/06/16 01:39:00;;;;;;;18.13;14.35;;;15.60;79.50;;;;;;5055088;28;20206;-90
2023/06/16 01:41:26;;;;;;;16.63;15.02;;;15.50;80.00;;;;;;5055300;28;20295;-89
2023/06/16 01:43:52;;;;;;;16.98;15.48;;;15.60;80.20;;;;;;5055181;28;20200;-89
2023/06/16 01:46:18;;;;;;;15.40;14.02;;;15.70;80.50;;;;;;5056249;28;20539;-89
2023/06/16 01:48:44;;;;;;;15.75;14.23;;;15.60;80.60;;;;;;5055170;28;20271;-89
2023/06/16 01:51:10;;;;;;;17.25;14.70;;;15.60;80.70;;;;;;5056041;28;20180;-89
2023/06/16 01:53:36;;;;;;;15.25;13.82;;;15.60;80.70;;;;;;5056112;28;20252;-89
2023/06/16 01:56:01;;;;;;;14.38;13.18;;;15.60;80.90;;;;;;5054941;28;20677;-89
2023/06/16 01:58:27;;;;;;;15.55;14.05;;;15.50;81.00;;;;;;5055265;28;20172;-89
2023/06/16 02:00:59;;;;;;;15.23;13.82;;;15.50;81.10;;;;;;5054931;28;20282;-89
2023/06/16 02:03:34;;;;;;;13.88;12.65;;;15.40;81.10;;;;;;5055403;28;20283;-89
2023/06/16 02:06:05;;;;;;;14.40;13.20;;;15.40;81.40;;;;;;5055444;28;20242;-89
2023/06/16 02:08:32;;;;;;;14.23;12.82;;;15.30;81.40;;;;;;5054590;28;20168;-89
2023/06/16 02:10:58;;;;;;;14.70;13.27;;;15.40;81.40;;;;;;5055667;28;20184;-89
2023/06/16 02:13:24;;;;;;;15.43;13.95;;;15.40;81.30;;;;;;5055677;28;20207;-89
2023/06/16 02:15:50;;;;;;;17.17;13.90;;;15.40;81.80;;;;;;5054706;28;20180;-89
2023/06/16 02:18:24;;;;;;;16.48;14.77;;;15.40;81.80;;;;;;5055823;28;20174;-89
2023/06/16 02:20:49;;;;;;;16.00;14.35;;;15.40;82.10;;;;;;5054277;28;20203;-89
2023/06/16 02:23:15;;;;;;;16.63;15.02;;;15.40;82.70;;;;;;5055084;28;20713;-89
2023/06/16 02:25:41;;;;;;;19.13;14.23;;;15.40;82.80;;;;;;5054268;28;20179;-90
2023/06/16 02:28:06;;;;;;;21.90;13.90;;;15.40;82.90;;;;;;5054034;28;20187;-89
2023/06/16 02:30:32;;;;;;;15.13;13.63;;;15.40;83.20;;;;;;5055035;28;20172;-89
2023/06/16 02:32:58;;;;;;;16.95;13.60;;;15.60;83.00;;;;;;5054265;28;20622;-89
2023/06/16 02:35:24;;;;;;;16.73;13.98;;;15.60;82.80;;;;;;5053472;28;20180;-89
2023/06/16 02:37:53;;;;;;;19.20;13.55;;;15.60;82.70;;;;;;5055323;28;20526;-89
2023/06/16 02:40:19;;;;;;;15.15;13.65;;;15.50;82.90;;;;;;5053840;28;20203;-89
2023/06/16 02:42:45;;;;;;;15.00;13.15;;;15.50;83.10;;;;;;5055365;28;20190;-89
2023/06/16 02:45:10;;;;;;;15.45;13.95;;;15.50;83.60;;;;;;5053827;28;20168;-89
2023/06/16 02:47:36;;;;;;;17.67;15.88;;;15.40;84.00;;;;;;5053771;28;20671;-89
2023/06/16 02:50:01;;;;;;;18.13;16.42;;;15.30;84.50;;;;;;5053931;28;20249;-89
2023/06/16 02:52:27;;;;;;;19.73;17.27;;;15.30;85.10;;;;;;5054841;28;20731;-89
2023/06/16 02:54:52;;;;;;;23.65;21.25;;;15.40;85.30;;;;;;5054902;28;20200;-89
2023/06/16 02:57:19;;;;;;;29.20;25.58;;;15.30;86.10;;;;;;5053549;28;20226;-89
2023/06/16 02:59:45;;;;;;;27.27;24.33;;;15.30;86.70;;;;;;5054631;28;20176;-89
2023/06/16 03:02:10;;;;;;;27.98;23.27;;;15.40;86.90;;;;;;5054948;28;20218;-89
2023/06/16 03:04:36;;;;;;;28.10;24.40;;;15.50;86.70;;;;;;5054396;28;20245;-89
2023/06/16 03:07:02;;;;;;;28.23;25.25;;;15.50;86.50;;;;;;5053438;28;20262;-89
2023/06/16 03:09:28;;;;;;;31.35;24.45;;;15.50;86.90;;;;;;5053387;28;20234;-89
2023/06/16 03:11:55;;;;;;;29.27;26.40;;;15.50;87.10;;;;;;5053244;28;20184;-89
2023/06/16 03:14:21;;;;;;;30.33;27.15;;;15.50;87.30;;;;;;5053341;28;20180;-89
2023/06/16 03:16:50;;;;;;;31.67;28.38;;;15.50;87.80;;;;;;5053568;28;20187;-89
2023/06/16 03:19:16;;;;;;;31.88;28.58;;;15.50;88.10;;;;;;5053382;28;20247;-89
2023/06/16 03:21:42;;;;;;;33.15;26.65;;;15.60;88.10;;;;;;5053174;28;20200;-89
2023/06/16 03:24:09;;;;;;;29.17;26.27;;;15.70;87.80;;;;;;5053156;28;20199;-89
2023/06/16 03:26:35;;;;;;;31.45;28.25;;;15.70;87.50;;;;;;5054330;28;20255;-89
2023/06/16 03:29:00;;;;;;;31.42;27.70;;;15.80;87.40;;;;;;5052931;28;20675;-89
2023/06/16 03:31:26;;;;;;;27.45;24.50;;;15.70;87.40;;;;;;5052947;28;20191;-89
2023/06/16 03:33:52;;;;;;;26.92;24.08;;;15.70;87.40;;;;;;5052976;28;20333;-89
2023/06/16 03:36:18;;;;;;;29.23;26.35;;;15.70;87.30;;;;;;5054115;28;20179;-90
2023/06/16 03:38:44;;;;;;;27.73;25.02;;;15.80;87.40;;;;;;5052953;28;20642;-90
2023/06/16 03:41:10;;;;;;;26.35;23.38;;;15.80;87.40;;;;;;5053007;28;20206;-90
2023/06/16 03:43:35;;;;;;;27.67;24.88;;;15.70;87.40;;;;;;5053054;28;20192;-90
2023/06/16 03:46:01;;;;;;;29.25;24.38;;;15.70;87.90;;;;;;5052374;28;20179;-90
2023/06/16 03:48:26;;;;;;;29.05;24.33;;;15.80;88.00;;;;;;5052061;28;20176;-90
2023/06/16 03:50:52;;;;;;;26.92;24.42;;;15.80;88.00;;;;;;5053727;28;20176;-89
2023/06/16 03:53:19;;;;;;;24.20;21.73;;;15.80;87.90;;;;;;5052520;28;20196;-89
2023/06/16 03:55:45;;;;;;;27.02;24.05;;;15.90;88.10;;;;;;5052444;28;20706;-90
2023/06/16 03:58:13;;;;;;;26.88;24.05;;;15.90;88.50;;;;;;5053704;28;20176;-90
2023/06/16 04:00:38;;;;;;;25.45;22.25;;;15.90;88.80;;;;;;5052350;28;20196;-89
2023/06/16 04:03:04;;;;;;;30.23;22.70;;;16.00;88.70;;;;;;5052297;28;20303;-89
2023/06/16 04:05:30;;;;;;;29.05;24.48;;;16.10;88.80;;;;;;5052309;28;20176;-89
2023/06/16 04:07:56;;;;;;;25.77;23.17;;;16.30;89.00;;;;;;5053095;28;20525;-89
2023/06/16 04:10:22;;;;;;;26.70;22.85;;;16.30;88.90;;;;;;5052371;28;20555;-89
2023/06/16 04:12:47;;;;;;;25.38;22.73;;;16.30;88.90;;;;;;5052117;28;20290;-89
2023/06/16 04:15:13;;;;;;;23.35;20.95;;;16.30;88.80;;;;;;5052321;28;20176;-89
2023/06/16 04:17:38;;;;;;;24.13;20.73;;;16.30;88.80;;;;;;5052219;28;20279;-89
2023/06/16 04:20:09;;;;;;;25.40;20.48;;;16.30;88.70;;;;;;5051998;28;20195;-89
2023/06/16 04:22:35;;;;;;;24.48;21.85;;;16.30;88.60;;;;;;5052000;28;20188;-89
2023/06/16 04:25:00;;;;;;;25.88;19.67;;;16.40;88.40;;;;;;5052377;28;20172;-89
2023/06/16 04:27:28;;;;;;;23.08;19.38;;;16.40;88.30;;;;;;5053753;28;20631;-89
2023/06/16 04:29:54;;;;;;;23.40;21.13;;;16.40;88.10;;;;;;5053840;28;20244;-89
2023/06/16 04:32:20;;;;;;;23.52;20.73;;;16.40;88.10;;;;;;5051863;28;20287;-89
2023/06/16 04:34:46;;;;;;;22.92;20.63;;;16.40;88.20;;;;;;5053198;28;20203;-89
2023/06/16 04:37:13;;;;;;;21.95;19.85;;;16.40;88.30;;;;;;5052353;28;20176;-89
2023/06/16 04:39:40;;;;;;;22.20;20.08;;;16.40;88.30;;;;;;5052514;28;20548;-89
2023/06/16 04:42:08;;;;;;;21.42;18.88;;;16.40;88.30;;;;;;5051670;28;20203;-89
2023/06/16 04:44:34;;;;;;;22.25;19.95;;;16.40;88.10;;;;;;5051726;28;20176;-89
2023/06/16 04:47:00;;;;;;;19.00;17.05;;;16.40;88.10;;;;;;5051777;28;20314;-89
2023/06/16 04:49:26;;;;;;;27.27;19.48;;;16.30;87.90;;;;;;5052074;28;20259;-89
2023/06/16 04:51:51;;;;;;;21.60;19.25;;;16.30;87.60;;;;;;5051724;28;20172;-89
2023/06/16 04:54:18;;;;;;;22.80;20.48;;;16.20;87.70;;;;;;5052939;28;20182;-89
2023/06/16 04:56:45;;;;;;;28.35;21.02;;;16.10;88.10;;;;;;5051866;28;20176;-89
2023/06/16 04:59:11;;;;;;;26.10;21.95;;;16.10;88.40;;;;;;5054457;28;20191;-89
2023/06/16 05:01:37;;;;;;;26.70;23.63;;;16.10;88.60;;;;;;5057366;28;20563;-89
2023/06/16 05:04:02;;;;;;;25.40;21.27;;;16.10;88.70;;;;;;5055775;28;20188;-89
2023/06/16 05:06:28;;;;;;;29.45;22.90;;;16.20;88.80;;;;;;5055747;28;20171;-89
2023/06/16 05:08:54;;;;;;;25.50;21.40;;;16.20;88.70;;;;;;5055788;28;20718;-89
2023/06/16 05:11:20;;;;;;;24.38;21.80;;;16.30;88.60;;;;;;5056050;28;20270;-89
2023/06/16 05:13:45;;;;;;;25.25;22.73;;;16.40;88.50;;;;;;5055546;28;20222;-89
2023/06/16 05:16:11;;;;;;;26.25;23.40;;;16.50;88.40;;;;;;5055806;28;20168;-89
2023/06/16 05:18:37;;;;;;;27.75;21.60;;;16.50;88.40;;;;;;5055721;28;20184;-89
2023/06/16 05:21:03;;;;;;;25.83;22.73;;;16.60;88.50;;;;;;5055396;28;20695;-89
2023/06/16 05:23:28;;;;;;;25.60;22.35;;;16.60;88.40;;;;;;5055440;28;20207;-89
2023/06/16 05:25:54;;;;;;;26.67;22.83;;;16.70;88.50;;;;;;5055328;28;20182;-89
2023/06/16 05:28:19;;;;;;;25.00;21.98;;;16.80;88.50;;;;;;5056513;28;20184;-89
2023/06/16 05:30:45;;;;;;;24.70;21.23;;;16.90;88.60;;;;;;5055343;28;20179;-89
2023/06/16 05:33:10;;;;;;;25.52;21.35;;;17.00;88.50;;;;;;5056554;28;20196;-88
2023/06/16 05:35:37;;;;;;;25.70;20.92;;;17.00;88.30;;;;;;5055690;28;20226;-89
2023/06/16 05:38:02;;;;;;;23.08;19.13;;;17.00;88.40;;;;;;5056486;28;20180;-89
2023/06/16 05:40:28;;;;;;;21.77;19.58;;;17.20;88.20;;;;;;5056321;28;20203;-91
2023/06/16 05:42:53;;;;;;;23.23;19.20;;;17.40;87.90;;;;;;5055091;28;20199;-89
2023/06/16 05:45:19;;;;;;;23.48;19.33;;;17.50;87.60;;;;;;5055145;28;20171;-89
2023/06/16 05:47:45;;;;;;;21.05;17.63;;;17.60;87.10;;;;;;5055231;28;20646;-89
2023/06/16 05:50:11;;;;;;;26.15;21.33;;;17.60;87.20;;;;;;5055658;28;20176;-89
2023/06/16 05:52:37;;;;;;;23.75;19.30;;;17.60;87.20;;;;;;5056632;28;20223;-89
2023/06/16 05:55:03;;;;;;;25.23;19.33;;;17.40;86.90;;;;;;5056376;28;20176;-89
2023/06/16 05:57:29;;;;;;;23.67;21.20;;;17.40;87.00;;;;;;5054711;28;20665;-89
2023/06/16 05:59:55;;;;;;;27.05;23.67;;;17.40;87.30;;;;;;5054594;28;20172;-89
2023/06/16 06:02:20;;;;;;;26.25;23.58;;;17.50;87.50;;;;;;5055869;28;20195;-89
2023/06/16 06:04:46;;;;;;;27.67;23.25;;;17.70;87.30;;;;;;5056145;28;20172;-89
2023/06/16 06:07:12;;;;;;;27.33;23.42;;;17.70;86.70;;;;;;5054747;28;20240;-89
2023/06/16 06:09:37;;;;;;;28.77;23.23;;;17.70;86.60;;;;;;5053860;28;20237;-89
2023/06/16 06:12:03;;;;;;;23.20;20.90;;;17.50;86.50;;;;;;5055916;28;20265;-89
2023/06/16 06:14:29;;;;;;;24.35;19.88;;;17.20;86.80;;;;;;5054457;28;20172;-89
2023/06/16 06:16:55;;;;;;;24.02;19.98;;;17.30;86.80;;;;;;5054433;28;20183;-89
2023/06/16 06:19:23;;;;;;;24.40;19.40;;;17.30;86.90;;;;;;5054314;28;20650;-89
2023/06/16 06:21:48;;;;;;;22.17;17.75;;;17.30;86.90;;;;;;5054653;28;20612;-89
2023/06/16 06:24:14;;;;;;;19.58;17.23;;;17.20;86.90;;;;;;5055579;28;20192;-89
2023/06/16 06:26:40;;;;;;;21.88;17.17;;;17.20;86.60;;;;;;5054702;28;20629;-90
2023/06/16 06:29:05;;;;;;;22.25;17.38;;;17.30;86.40;;;;;;5054049;28;20196;-90
2023/06/16 06:31:32;;;;;;;20.55;15.48;;;17.50;86.50;;;;;;5055374;28;20222;-90
2023/06/16 06:33:57;;;;;;;17.73;15.68;;;17.50;86.30;;;;;;5054038;28;20697;-89
2023/06/16 06:36:27;;;;;;;20.45;15.10;;;17.70;86.60;;;;;;5054112;28;20180;-89
2023/06/16 06:38:56;;;;;;;19.83;14.45;;;17.80;86.10;;;;;;5053950;28;20172;-90
2023/06/16 06:41:23;;;;;;;17.63;15.15;;;17.90;85.50;;;;;;5055138;28;20262;-90
2023/06/16 06:43:49;;;;;;;19.25;16.33;;;18.00;84.90;;;;;;5055080;28;20188;-89
2023/06/16 06:46:17;;;;;;;20.00;16.73;;;18.00;84.30;;;;;;5054995;28;20606;-89
2023/06/16 06:48:43;;;;;;;21.23;15.95;;;17.90;84.30;;;;;;5053883;28;20172;-90
2023/06/16 06:51:10;;;;;;;24.88;17.67;;;18.00;84.50;;;;;;5053909;28;20182;-90
2023/06/16 06:53:35;;;;;;;20.40;17.20;;;18.10;84.50;;;;;;5055125;28;20188;-89
2023/06/16 06:56:01;;;;;;;17.80;15.85;;;18.20;84.50;;;;;;5054569;28;20191;-90
2023/06/16 06:58:27;;;;;;;21.13;15.98;;;18.30;83.90;;;;;;5054008;28;20267;-90
2023/06/16 07:00:52;;;;;;;22.85;16.08;;;18.30;83.90;;;;;;5054832;28;20571;-90
2023/06/16 07:03:18;;;;;;;15.80;14.13;;;18.40;83.60;;;;;;5053532;28;20623;-90
2023/06/16 07:05:43;;;;;;;18.67;13.57;;;18.30;83.50;;;;;;5055571;28;20705;-90
2023/06/16 07:08:09;;;;;;;14.20;12.73;;;18.40;83.20;;;;;;5055016;28;20183;-90
2023/06/16 07:10:36;;;;;;;14.82;12.27;;;18.70;83.40;;;;;;5053632;28;20634;-90
2023/06/16 07:13:02;;;;;;;16.63;12.25;;;18.90;82.80;;;;;;5053375;28;20203;-90
2023/06/16 07:15:27;;;;;;;15.00;13.23;;;19.10;82.30;;;;;;5053423;28;20199;-90
2023/06/16 07:17:53;;;;;;;18.85;13.52;;;19.20;81.70;;;;;;5053439;28;20654;-90
2023/06/16 07:20:19;;;;;;;13.93;12.45;;;19.20;80.40;;;;;;5053437;28;20558;-90
2023/06/16 07:22:45;;;;;;;17.60;13.23;;;19.00;80.20;;;;;;5054391;28;20200;-90
2023/06/16 07:25:11;;;;;;;19.30;13.13;;;19.00;81.50;;;;;;5053293;28;20177;-90
2023/06/16 07:27:37;;;;;;;14.52;12.93;;;19.00;82.30;;;;;;5053204;28;20176;-90
2023/06/16 07:30:05;;;;;;;16.00;12.90;;;19.20;80.70;;;;;;5053229;28;20275;-90
2023/06/16 07:32:30;;;;;;;18.95;11.85;;;19.20;80.40;;;;;;5052967;28;20205;-90
2023/06/16 07:34:56;;;;;;;13.68;12.25;;;19.00;79.40;;;;;;5052975;28;20176;-90
2023/06/16 07:37:23;;;;;;;14.32;12.55;;;19.20;80.00;;;;;;5052982;28;20172;-92
2023/06/16 07:39:48;;;;;;;13.63;11.85;;;19.10;80.00;;;;;;5052882;28;20168;-90
2023/06/16 07:42:15;;;;;;;16.65;12.38;;;19.50;79.80;;;;;;5052750;28;20203;-90
2023/06/16 07:44:41;;;;;;;12.93;11.35;;;19.50;78.60;;;;;;5053483;28;20199;-90
2023/06/16 07:47:06;;;;;;;13.35;12.00;;;19.70;79.10;;;;;;5052733;28;20566;-90
2023/06/16 07:49:32;;;;;;;14.73;11.68;;;19.60;79.10;;;;;;5053849;28;20251;-90
2023/06/16 07:51:57;;;;;;;14.73;11.35;;;19.60;78.60;;;;;;5052578;28;20183;-90
2023/06/16 07:54:23;;;;;;;13.75;10.18;;;19.80;78.70;;;;;;5053813;28;20180;-90
2023/06/16 07:56:50;;;;;;;11.98;10.38;;;19.80;77.10;;;;;;5052556;28;20650;-89
2023/06/16 07:59:15;;;;;;;13.75;10.05;;;20.00;76.20;;;;;;5052692;28;20187;-89
2023/06/16 08:01:42;;;;;;;10.38;9.38;;;20.10;76.50;;;;;;5052840;28;20196;-89
2023/06/16 08:04:08;;;;;;;18.48;16.67;;;20.20;75.60;;;;;;5053936;28;20192;-89
2023/06/16 08:06:34;;;;;;;18.92;17.27;;;19.90;76.40;;;;;;5053349;28;20183;-89
2023/06/16 08:08:59;;;;;;;19.63;17.70;;;20.30;76.40;;;;;;5053595;28;20176;-89
2023/06/16 08:11:25;;;;;;;21.98;19.85;;;20.50;76.40;;;;;;5052410;28;20253;-90
2023/06/16 08:13:52;;;;;;;20.25;18.20;;;20.50;74.90;;;;;;5052542;28;20199;-90
2023/06/16 08:16:17;;;;;;;21.23;19.27;;;20.60;74.90;;;;;;5053537;28;20247;-89
2023/06/16 08:18:43;;;;;;;21.20;19.48;;;20.60;74.10;;;;;;5052778;28;20186;-90
2023/06/16 08:21:09;;;;;;;19.15;17.48;;;20.90;74.20;;;;;;5053280;28;20188;-90
2023/06/16 08:23:34;;;;;;;21.08;18.88;;;21.20;73.30;;;;;;5053289;28;20562;-89
2023/06/16 08:26:00;;;;;;;20.83;19.13;;;21.20;72.10;;;;;;5052112;28;20721;-89
2023/06/16 08:28:26;;;;;;;19.40;17.80;;;21.40;71.90;;;;;;5053301;28;20203;-90
2023/06/16 08:30:51;;;;;;;20.23;18.58;;;21.60;71.10;;;;;;5053218;28;20172;-88
2023/06/16 08:33:17;;;;;;;19.70;18.00;;;21.80;70.50;;;;;;5051660;28;20192;-89
2023/06/16 08:35:43;;;;;;;14.10;10.30;;;21.70;69.60;;;;;;5052900;28;20585;-89
2023/06/16 08:38:08;;;;;;;14.25;11.35;;;21.70;70.20;;;;;;5051898;28;20694;-90
2023/06/16 08:40:34;;;;;;;14.30;11.15;;;21.70;70.70;;;;;;5051858;28;20330;-89
2023/06/16 08:43:03;;;;;;;12.70;11.60;;;21.50;71.20;;;;;;5053071;28;20196;-90
2023/06/16 08:45:29;;;;;;;12.55;10.85;;;21.40;71.80;;;;;;5053154;28;20172;-90
2023/06/16 08:47:54;;;;;;;13.88;11.90;;;21.80;71.80;;;;;;5053323;28;20179;-90
2023/06/16 08:50:22;;;;;;;18.10;12.38;;;21.80;71.20;;;;;;5053625;28;20179;-89
2023/06/16 08:52:49;;;;;;;15.90;12.18;;;21.80;71.50;;;;;;5051683;28;20279;-88
2023/06/16 08:55:15;;;;;;;14.50;13.00;;;22.00;69.80;;;;;;5051828;28;20187;-90
2023/06/16 08:57:46;;;;;;;14.52;11.77;;;21.60;69.70;;;;;;5052902;28;20179;-90
2023/06/16 09:00:13;;;;;;;13.60;12.40;;;21.70;71.80;;;;;;5051738;28;20263;-89
2023/06/16 09:02:41;;;;;;;17.52;13.05;;;21.60;70.90;;;;;;5053063;28;20192;-89
2023/06/16 09:05:07;;;;;;;15.75;12.80;;;21.30;71.50;;;;;;5051752;28;20614;-89
2023/06/16 09:07:33;;;;;;;12.40;11.40;;;21.20;73.00;;;;;;5051715;28;20226;-90
2023/06/16 09:09:58;;;;;;;13.55;12.18;;;21.30;73.30;;;;;;5052864;28;20581;-90
2023/06/16 09:12:24;;;;;;;15.15;12.65;;;21.20;72.30;;;;;;5051604;28;20195;-90
2023/06/16 09:14:50;;;;;;;15.57;13.48;;;21.40;72.50;;;;;;5053141;28;20164;-90
2023/06/16 09:17:27;;;;;;;17.23;14.07;;;21.70;71.20;;;;;;5052921;28;20161;-89
2023/06/16 09:19:53;;;;;;;18.77;13.98;;;21.50;71.00;;;;;;5052468;28;20160;-91
2023/06/16 09:22:23;;;;;;;17.83;13.02;;;21.20;72.10;;;;;;5052630;28;20257;-89
2023/06/16 09:24:56;;;;;;;14.65;13.13;;;21.00;72.00;;;;;;5051833;28;20653;-88
2023/06/16 09:27:25;;;;;;;15.18;13.07;;;20.80;72.70;;;;;;5052721;28;20179;-89
2023/06/16 09:29:56;;;;;;;17.48;12.70;;;20.90;73.10;;;;;;5051285;28;20237;-87
2023/06/16 09:32:22;;;;;;;20.20;11.98;;;21.20;72.00;;;;;;5051518;28;20357;-87
2023/06/16 09:34:48;;;;;;;12.45;11.25;;;20.90;72.60;;;;;;5051501;28;20199;-87
2023/06/16 09:37:19;;;;;;;14.48;11.80;;;20.60;73.10;;;;;;5052549;28;20173;-86
2023/06/16 09:39:45;;;;;;;15.23;13.00;;;20.50;73.30;;;;;;5052158;28;20165;-86
2023/06/16 09:42:16;;;;;;;13.05;11.73;;;20.20;73.50;;;;;;5052427;28;20696;-86
2023/06/16 09:44:42;;;;;;;17.75;12.93;;;20.20;73.10;;;;;;5052914;28;20165;-86
2023/06/16 09:47:12;;;;;;;14.27;12.80;;;20.10;73.00;;;;;;5056061;28;20225;-87
2023/06/16 09:49:38;;;;;;;17.02;12.60;;;19.90;73.90;;;;;;5056205;28;20160;-87
2023/06/16 09:52:04;;;;;;;12.85;11.30;;;20.00;74.20;;;;;;5054971;28;20176;-88
2023/06/16 09:54:32;;;;;;;11.98;10.07;;;20.00;74.40;;;;;;5054807;28;20251;-87
2023/06/16 09:56:59;;;;;;;12.00;10.80;;;20.20;74.80;;;;;;5054890;28;20184;-85
2023/06/16 09:59:27;;;;;;;12.15;10.93;;;20.00;75.30;;;;;;5054664;28;20210;-87
2023/06/16 10:01:54;;;;;;;11.77;10.30;;;19.90;75.70;;;;;;5054520;28;20196;-87
2023/06/16 10:04:21;;;;;;;11.90;10.68;;;19.80;76.30;;;;;;5055574;28;20176;-88
2023/06/16 10:06:53;;;;;;;11.80;10.60;;;19.80;76.50;;;;;;5055943;28;20180;-87
2023/06/16 10:09:27;;;;;;;12.80;11.20;;;19.80;76.70;;;;;;5055419;28;20532;-86
2023/06/16 10:11:57;;;;;;;15.20;10.73;;;19.80;77.00;;;;;;5054622;28;20163;-88
2023/06/16 10:14:30;;;;;;;11.52;10.32;;;20.10;76.90;;;;;;5054607;28;20211;-86
2023/06/16 10:16:58;;;;;;;14.30;11.18;;;20.20;76.70;;;;;;5056078;28;20175;-89
2023/06/16 10:19:25;;;;;;;17.02;10.63;;;20.40;75.80;;;;;;5055776;28;20191;-88
2023/06/16 10:21:52;;;;;;;16.77;11.73;;;20.30;76.10;;;;;;5054659;28;20574;-89
2023/06/16 10:24:17;;;;;;;13.52;11.13;;;20.10;76.20;;;;;;5054479;28;20202;-88
2023/06/16 10:26:43;;;;;;;16.38;11.48;;;20.00;76.00;;;;;;5054447;28;20168;-88
2023/06/16 10:29:16;;;;;;;13.10;11.20;;;20.10;76.80;;;;;;5055424;28;20658;-88
2023/06/16 10:31:43;;;;;;;16.38;10.43;;;20.10;76.80;;;;;;5055613;28;20156;-88
2023/06/16 10:34:18;;;;;;;14.07;10.25;;;20.30;76.40;;;;;;5054270;28;20200;-88
2023/06/16 10:36:43;;;;;;;12.80;10.48;;;20.20;76.30;;;;;;5054305;28;20172;-87
2023/06/16 10:39:15;;;;;;;14.45;10.57;;;20.10;77.20;;;;;;5055331;28;20645;-88
2023/06/16 10:41:51;;;;;;;15.65;9.40;;;20.30;76.70;;;;;;5053977;28;20188;-88
2023/06/16 10:44:31;;;;;;;13.63;9.48;;;20.40;76.60;;;;;;5053961;28;20208;-88
2023/06/16 10:47:09;;;;;;;14.60;10.30;;;20.40;75.80;;;;;;5055323;28;20259;-89
2023/06/16 10:49:55;;;;;;;19.73;10.75;;;20.20;76.00;;;;;;5053946;28;20179;-88
2023/06/16 10:52:42;;;;;;;14.30;11.02;;;20.00;77.10;;;;;;5055801;28;20556;-85
2023/06/16 10:55:37;;;;;;;16.27;12.27;;;19.90;78.10;;;;;;5055082;28;20172;-89
2023/06/16 10:58:20;;;;;;;13.60;11.93;;;19.60;79.10;;;;;;5055279;28;20195;-88
2023/06/16 11:00:57;;;;;;;12.13;10.32;;;19.60;79.70;;;;;;5054391;28;20195;-88
2023/06/16 11:03:27;;;;;;;12.35;10.55;;;19.50;79.60;;;;;;5053540;28;20192;-87
2023/06/16 11:05:58;;;;;;;13.95;12.43;;;19.60;79.90;;;;;;5053980;28;20502;-89
2023/06/16 11:08:24;;;;;;;14.40;12.88;;;19.50;79.60;;;;;;5053542;28;20720;-86
2023/06/16 11:10:52;;;;;;;16.20;12.20;;;19.70;80.00;;;;;;5053506;28;20206;-87
2023/06/16 11:13:22;;;;;;;13.25;11.68;;;19.60;79.80;;;;;;5053246;28;20199;-88
2023/06/16 11:15:48;;;;;;;21.75;10.45;;;19.50;80.30;;;;;;5054615;28;20249;-88
2023/06/16 11:18:13;;;;;;;13.77;11.18;;;19.50;80.10;;;;;;5054992;28;20207;-89
2023/06/16 11:20:40;;;;;;;11.48;10.27;;;19.40;80.70;;;;;;5054035;28;20662;-87
2023/06/16 11:23:06;;;;;;;14.65;10.73;;;19.30;80.90;;;;;;5054436;28;20246;-86
2023/06/16 11:25:32;;;;;;;19.95;11.00;;;19.40;81.10;;;;;;5054317;28;20665;-87
2023/06/16 11:27:58;;;;;;;21.17;11.05;;;19.40;80.90;;;;;;5053696;28;20165;-87
2023/06/16 11:30:24;;;;;;;16.30;10.90;;;19.30;81.60;;;;;;5054370;28;20583;-87
2023/06/16 11:32:50;;;;;;;11.95;10.07;;;19.20;81.90;;;;;;5054071;28;20250;-89
2023/06/16 11:35:17;;;;;;;11.45;10.27;;;19.10;82.00;;;;;;5053075;28;20180;-86
2023/06/16 11:37:54;;;;;;;15.45;10.90;;;19.10;82.80;;;;;;5054188;28;20222;-87
2023/06/16 11:40:25;;;;;;;13.15;11.27;;;19.00;83.50;;;;;;5052760;28;20266;-87
2023/06/16 11:42:59;;;;;;;14.88;10.20;;;18.80;84.70;;;;;;5052735;28;20745;-88
2023/06/16 11:45:28;;;;;;;16.77;11.05;;;18.80;84.60;;;;;;5052910;28;20685;-87
2023/06/16 11:47:58;;;;;;;16.88;11.05;;;18.80;85.50;;;;;;5052806;28;20226;-87
2023/06/16 11:50:24;;;;;;;13.15;10.43;;;18.90;85.10;;;;;;5053837;28;20179;-87
2023/06/16 11:52:50;;;;;;;13.65;10.63;;;18.70;85.20;;;;;;5052586;28;20310;-87
2023/06/16 11:55:16;;;;;;;16.38;11.80;;;18.60;85.20;;;;;;5052540;28;20199;-87
2023/06/16 11:57:43;;;;;;;14.93;10.63;;;18.60;85.40;;;;;;5052570;28;20662;-87
2023/06/16 12:00:09;;;;;;;17.08;9.85;;;18.70;85.70;;;;;;5053640;28;20238;-86
2023/06/16 12:02:38;;;;;;;10.93;9.82;;;18.70;85.40;;;;;;5052359;28;20192;-86
2023/06/16 12:05:19;;;;;;;10.77;9.73;;;18.60;85.40;;;;;;5053769;28;20171;-86
2023/06/16 12:07:46;;;;;;;14.02;9.55;;;18.80;85.40;;;;;;5051550;28;20238;-86
2023/06/16 12:10:11;;;;;;;13.57;9.23;;;18.80;84.70;;;;;;5052249;28;20165;-86
2023/06/16 12:12:38;;;;;;;11.20;10.18;;;18.80;84.20;;;;;;5053588;28;20198;-86
2023/06/16 12:15:04;;;;;;;14.07;8.48;;;18.90;84.00;;;;;;5052215;28;20184;-86
2023/06/16 12:17:33;;;;;;;13.35;9.77;;;18.80;83.70;;;;;;5053610;28;20186;-86
2023/06/16 12:19:58;;;;;;;12.70;9.07;;;18.80;83.60;;;;;;5053230;28;20165;-86
2023/06/16 12:22:34;;;;;;;12.70;9.38;;;18.80;83.60;;;;;;5053198;28;20211;-86
2023/06/16 12:24:59;;;;;;;11.93;10.80;;;18.70;83.90;;;;;;5052615;28;20167;-86
2023/06/16 12:27:25;;;;;;;16.88;10.43;;;18.70;83.60;;;;;;5053436;28;20167;-86
2023/06/16 12:29:57;;;;;;;14.65;10.73;;;18.70;84.00;;;;;;5051828;28;20226;-86